CYM weather

Chatham Seaplane Base
Chatham, Alaska, United States

Public forecast

Using degrees Fahrenheit for public forecast. Weather courtesy of forecast.io.

Closest aviation weather report (METAR) to Chatham Seaplane Base

Closest report is Angoon Seaplane Base, 11.7 nm (21.6 km) E. Retrieved 2020/06/02 02:56 UTC (1 hour ago):

PAGN 020256Z AUTO 10005KT 10SM -RA BKN035 BKN042 OVC055 09/06 A2979 RMK AO2 SLP077 P0001 60001 T00890061 56016

Closest aviation forecast (TAF) to Chatham Seaplane Base

Closest forecast is Sitka Rocky Gutierrez Airport, 31.2 nm (57.7 km) SSW. Retrieved 2020-06-02 00:22 UTC (4 hours ago):

TAF PASI 012320Z 0200/0224 12013G20KT P6SM -RA OVC050 WS020/14030KT FM020400 14010KT P6SM -SHRA BKN025 OVC050 FM022000 20007KT P6SM -SHRA SCT025 OVC040